sensor_id;sensor_type;location;lat;lon;timestamp;pressure;altitude;pressure_sealevel;temperature;humidity
20630;BME280;17386;43.846;25.950;2023-02-13T00:00:00;103484.97;;;1.92;90.20
20630;BME280;17386;43.846;25.950;2023-02-13T00:02:26;103478.81;;;1.91;90.21
20630;BME280;17386;43.846;25.950;2023-02-13T00:04:51;103482.34;;;1.92;90.85
20630;BME280;17386;43.846;25.950;2023-02-13T00:07:17;103482.44;;;1.94;90.32
20630;BME280;17386;43.846;25.950;2023-02-13T00:09:42;103482.34;;;1.92;90.56
20630;BME280;17386;43.846;25.950;2023-02-13T00:12:08;103488.69;;;1.97;90.55
20630;BME280;17386;43.846;25.950;2023-02-13T00:14:35;103483.50;;;1.99;89.93
20630;BME280;17386;43.846;25.950;2023-02-13T00:17:01;103490.63;;;2.01;89.91
20630;BME280;17386;43.846;25.950;2023-02-13T00:19:27;103497.59;;;2.01;89.32
20630;BME280;17386;43.846;25.950;2023-02-13T00:21:52;103485.72;;;2.09;88.85
20630;BME280;17386;43.846;25.950;2023-02-13T00:24:17;103489.50;;;2.15;88.84
20630;BME280;17386;43.846;25.950;2023-02-13T00:26:43;103500.81;;;2.14;88.06
20630;BME280;17386;43.846;25.950;2023-02-13T00:29:08;103511.78;;;2.06;87.79
20630;BME280;17386;43.846;25.950;2023-02-13T00:31:34;103504.19;;;2.12;87.46
20630;BME280;17386;43.846;25.950;2023-02-13T00:33:59;103497.81;;;2.26;87.41
20630;BME280;17386;43.846;25.950;2023-02-13T00:36:24;103501.69;;;2.34;87.46
20630;BME280;17386;43.846;25.950;2023-02-13T00:38:50;103489.44;;;2.35;87.46
20630;BME280;17386;43.846;25.950;2023-02-13T00:41:16;103487.00;;;2.39;86.98
20630;BME280;17386;43.846;25.950;2023-02-13T00:43:42;103493.22;;;2.41;85.06
20630;BME280;17386;43.846;25.950;2023-02-13T00:46:08;103497.75;;;2.45;83.86
20630;BME280;17386;43.846;25.950;2023-02-13T00:48:34;103499.31;;;2.40;82.83
20630;BME280;17386;43.846;25.950;2023-02-13T00:51:00;103500.06;;;2.38;82.13
20630;BME280;17386;43.846;25.950;2023-02-13T00:53:26;103498.47;;;2.41;82.07
20630;BME280;17386;43.846;25.950;2023-02-13T00:55:52;103505.38;;;2.39;81.72
20630;BME280;17386;43.846;25.950;2023-02-13T00:58:18;103509.72;;;2.39;80.87
20630;BME280;17386;43.846;25.950;2023-02-13T01:00:44;103497.69;;;2.44;80.66
20630;BME280;17386;43.846;25.950;2023-02-13T01:03:15;103496.81;;;2.43;80.28
20630;BME280;17386;43.846;25.950;2023-02-13T01:05:42;103491.75;;;2.48;80.56
20630;BME280;17386;43.846;25.950;2023-02-13T01:08:08;103508.56;;;2.53;80.12
20630;BME280;17386;43.846;25.950;2023-02-13T01:10:33;103509.41;;;2.52;80.10
20630;BME280;17386;43.846;25.950;2023-02-13T01:12:59;103498.97;;;2.54;80.13
20630;BME280;17386;43.846;25.950;2023-02-13T01:15:24;103498.97;;;2.54;79.69
20630;BME280;17386;43.846;25.950;2023-02-13T01:17:52;103492.97;;;2.56;79.76
20630;BME280;17386;43.846;25.950;2023-02-13T01:20:18;103489.19;;;2.50;79.78
20630;BME280;17386;43.846;25.950;2023-02-13T01:22:43;103492.66;;;2.49;79.52
20630;BME280;17386;43.846;25.950;2023-02-13T01:25:10;103479.59;;;2.50;79.55
20630;BME280;17386;43.846;25.950;2023-02-13T01:27:35;103485.78;;;2.52;78.71
20630;BME280;17386;43.846;25.950;2023-02-13T01:30:04;103476.31;;;2.56;78.37
20630;BME280;17386;43.846;25.950;2023-02-13T01:32:29;103481.56;;;2.56;78.08
20630;BME280;17386;43.846;25.950;2023-02-13T01:34:54;103482.47;;;2.56;78.17
20630;BME280;17386;43.846;25.950;2023-02-13T01:37:20;103482.41;;;2.55;78.25
20630;BME280;17386;43.846;25.950;2023-02-13T01:39:45;103468.03;;;2.46;78.32
20630;BME280;17386;43.846;25.950;2023-02-13T01:42:23;103475.69;;;2.40;78.30
20630;BME280;17386;43.846;25.950;2023-02-13T01:44:50;103474.59;;;2.35;78.14
20630;BME280;17386;43.846;25.950;2023-02-13T01:47:28;103484.38;;;2.39;77.95
20630;BME280;17386;43.846;25.950;2023-02-13T01:52:33;103484.47;;;2.41;78.09
20630;BME280;17386;43.846;25.950;2023-02-13T01:55:00;103477.34;;;2.38;78.41
20630;BME280;17386;43.846;25.950;2023-02-13T01:57:27;103487.25;;;2.45;78.03
20630;BME280;17386;43.846;25.950;2023-02-13T01:59:58;103488.66;;;2.37;77.81
20630;BME280;17386;43.846;25.950;2023-02-13T02:02:25;103487.97;;;2.41;77.95
20630;BME280;17386;43.846;25.950;2023-02-13T02:04:52;103481.06;;;2.43;77.82
20630;BME280;17386;43.846;25.950;2023-02-13T02:07:20;103483.09;;;2.51;77.83
20630;BME280;17386;43.846;25.950;2023-02-13T02:09:48;103480.47;;;2.51;77.67
20630;BME280;17386;43.846;25.950;2023-02-13T02:12:20;103489.50;;;2.57;76.99
20630;BME280;17386;43.846;25.950;2023-02-13T02:14:48;103482.88;;;2.67;76.61
20630;BME280;17386;43.846;25.950;2023-02-13T02:17:15;103476.03;;;2.70;76.42
20630;BME280;17386;43.846;25.950;2023-02-13T02:19:46;103482.09;;;2.68;76.54
20630;BME280;17386;43.846;25.950;2023-02-13T02:30:40;103481.50;;;2.75;74.72
20630;BME280;17386;43.846;25.950;2023-02-13T02:41:09;103475.81;;;2.87;73.31
20630;BME280;17386;43.846;25.950;2023-02-13T02:43:54;103479.22;;;2.84;73.20
20630;BME280;17386;43.846;25.950;2023-02-13T02:46:35;103480.81;;;2.81;73.43
20630;BME280;17386;43.846;25.950;2023-02-13T02:49:07;103480.91;;;2.82;73.46
20630;BME280;17386;43.846;25.950;2023-02-13T02:52:04;103477.44;;;2.83;73.67
20630;BME280;17386;43.846;25.950;2023-02-13T02:57:29;103467.22;;;2.68;73.24
20630;BME280;17386;43.846;25.950;2023-02-13T03:00:21;103474.94;;;2.65;73.49
20630;BME280;17386;43.846;25.950;2023-02-13T03:03:24;103483.78;;;2.46;73.80
20630;BME280;17386;43.846;25.950;2023-02-13T03:06:35;103478.53;;;2.46;74.38
20630;BME280;17386;43.846;25.950;2023-02-13T03:09:01;103482.84;;;2.44;74.18
20630;BME280;17386;43.846;25.950;2023-02-13T03:11:50;103477.34;;;2.38;74.55
20630;BME280;17386;43.846;25.950;2023-02-13T03:14:36;103477.81;;;2.28;75.08
20630;BME280;17386;43.846;25.950;2023-02-13T03:17:02;103476.69;;;2.23;75.48
20630;BME280;17386;43.846;25.950;2023-02-13T03:25:25;103479.78;;;2.13;75.99
20630;BME280;17386;43.846;25.950;2023-02-13T03:34:12;103483.13;;;1.89;76.63
20630;BME280;17386;43.846;25.950;2023-02-13T03:36:58;103478.31;;;1.79;76.48
20630;BME280;17386;43.846;25.950;2023-02-13T03:42:34;103491.81;;;1.69;76.79
20630;BME280;17386;43.846;25.950;2023-02-13T03:45:12;103497.91;;;1.68;77.63
20630;BME280;17386;43.846;25.950;2023-02-13T03:47:59;103489.69;;;1.60;77.82
20630;BME280;17386;43.846;25.950;2023-02-13T03:50:46;103486.03;;;1.57;78.32
20630;BME280;17386;43.846;25.950;2023-02-13T03:53:13;103474.56;;;1.35;79.35
20630;BME280;17386;43.846;25.950;2023-02-13T03:55:42;103480.81;;;1.38;79.33
20630;BME280;17386;43.846;25.950;2023-02-13T03:58:33;103487.66;;;1.35;79.64
20630;BME280;17386;43.846;25.950;2023-02-13T04:01:21;103481.47;;;1.33;80.13
20630;BME280;17386;43.846;25.950;2023-02-13T04:04:09;103477.97;;;1.33;81.02
20630;BME280;17386;43.846;25.950;2023-02-13T04:06:52;103473.69;;;1.35;79.38
20630;BME280;17386;43.846;25.950;2023-02-13T04:09:21;103478.31;;;1.41;79.20
20630;BME280;17386;43.846;25.950;2023-02-13T04:12:20;103487.41;;;1.49;79.46
20630;BME280;17386;43.846;25.950;2023-02-13T04:15:17;103481.88;;;1.43;79.19
20630;BME280;17386;43.846;25.950;2023-02-13T04:17:50;103486.44;;;1.47;79.52
20630;BME280;17386;43.846;25.950;2023-02-13T04:20:17;103485.69;;;1.49;79.33
20630;BME280;17386;43.846;25.950;2023-02-13T04:22:47;103488.47;;;1.52;79.44
20630;BME280;17386;43.846;25.950;2023-02-13T04:25:14;103483.22;;;1.52;79.36
20630;BME280;17386;43.846;25.950;2023-02-13T04:27:40;103480.38;;;1.48;79.69
20630;BME280;17386;43.846;25.950;2023-02-13T04:30:07;103484.44;;;1.41;79.55
20630;BME280;17386;43.846;25.950;2023-02-13T04:32:33;103480.25;;;1.45;78.87
20630;BME280;17386;43.846;25.950;2023-02-13T04:34:58;103487.22;;;1.44;78.57
20630;BME280;17386;43.846;25.950;2023-02-13T04:37:24;103493.25;;;1.43;78.85
20630;BME280;17386;43.846;25.950;2023-02-13T04:39:49;103497.25;;;1.35;78.80
20630;BME280;17386;43.846;25.950;2023-02-13T04:42:14;103497.31;;;1.36;78.77
20630;BME280;17386;43.846;25.950;2023-02-13T04:44:40;103500.09;;;1.40;78.92
20630;BME280;17386;43.846;25.950;2023-02-13T04:47:05;103496.72;;;1.42;78.29
20630;BME280;17386;43.846;25.950;2023-02-13T04:49:30;103502.66;;;1.38;78.85
20630;BME280;17386;43.846;25.950;2023-02-13T04:51:56;103501.81;;;1.39;79.31
20630;BME280;17386;43.846;25.950;2023-02-13T04:54:21;103497.78;;;1.28;80.28
20630;BME280;17386;43.846;25.950;2023-02-13T04:56:47;103499.69;;;1.30;80.29
20630;BME280;17386;43.846;25.950;2023-02-13T04:59:12;103490.00;;;1.29;80.46
20630;BME280;17386;43.846;25.950;2023-02-13T05:01:37;103488.28;;;1.30;80.04
20630;BME280;17386;43.846;25.950;2023-02-13T05:04:03;103493.44;;;1.28;80.49
20630;BME280;17386;43.846;25.950;2023-02-13T05:06:28;103508.22;;;1.26;80.86
20630;BME280;17386;43.846;25.950;2023-02-13T05:08:54;103515.91;;;1.23;81.24
20630;BME280;17386;43.846;25.950;2023-02-13T05:11:19;103513.38;;;1.25;81.42
20630;BME280;17386;43.846;25.950;2023-02-13T05:13:44;103520.34;;;1.24;81.99
20630;BME280;17386;43.846;25.950;2023-02-13T05:16:10;103516.91;;;1.07;82.80
20630;BME280;17386;43.846;25.950;2023-02-13T05:18:35;103518.28;;;0.99;84.34
20630;BME280;17386;43.846;25.950;2023-02-13T05:21:00;103526.19;;;1.01;84.42
20630;BME280;17386;43.846;25.950;2023-02-13T05:24:04;103531.97;;;0.76;86.30
20630;BME280;17386;43.846;25.950;2023-02-13T05:26:30;103532.41;;;0.67;88.33
20630;BME280;17386;43.846;25.950;2023-02-13T05:28:55;103534.94;;;0.66;88.85
20630;BME280;17386;43.846;25.950;2023-02-13T05:31:39;103534.06;;;0.65;89.18
20630;BME280;17386;43.846;25.950;2023-02-13T05:34:04;103527.34;;;0.70;89.73
20630;BME280;17386;43.846;25.950;2023-02-13T05:36:30;103537.44;;;0.63;89.81
20630;BME280;17386;43.846;25.950;2023-02-13T05:38:55;103537.84;;;0.54;90.63
20630;BME280;17386;43.846;25.950;2023-02-13T05:41:21;103540.00;;;0.45;90.51
20630;BME280;17386;43.846;25.950;2023-02-13T05:43:46;103547.34;;;0.52;90.66
20630;BME280;17386;43.846;25.950;2023-02-13T05:46:11;103552.13;;;0.61;90.16
20630;BME280;17386;43.846;25.950;2023-02-13T05:48:37;103546.75;;;0.58;90.16
20630;BME280;17386;43.846;25.950;2023-02-13T05:51:02;103544.53;;;0.65;89.89
20630;BME280;17386;43.846;25.950;2023-02-13T05:53:31;103545.59;;;0.69;90.00
20630;BME280;17386;43.846;25.950;2023-02-13T05:56:00;103539.59;;;0.71;89.79
20630;BME280;17386;43.846;25.950;2023-02-13T05:58:25;103541.44;;;0.74;89.29
20630;BME280;17386;43.846;25.950;2023-02-13T06:00:55;103542.41;;;0.58;89.66
20630;BME280;17386;43.846;25.950;2023-02-13T06:03:21;103540.31;;;0.51;90.03
20630;BME280;17386;43.846;25.950;2023-02-13T06:05:47;103549.19;;;0.54;89.66
20630;BME280;17386;43.846;25.950;2023-02-13T06:08:12;103546.75;;;0.58;89.67
20630;BME280;17386;43.846;25.950;2023-02-13T06:10:37;103559.84;;;0.58;89.82
20630;BME280;17386;43.846;25.950;2023-02-13T06:13:03;103553.56;;;0.72;89.53
20630;BME280;17386;43.846;25.950;2023-02-13T06:15:30;103548.78;;;0.81;89.31
20630;BME280;17386;43.846;25.950;2023-02-13T06:17:55;103554.38;;;0.89;88.64
20630;BME280;17386;43.846;25.950;2023-02-13T06:20:20;103553.13;;;0.98;88.50
20630;BME280;17386;43.846;25.950;2023-02-13T06:22:50;103550.94;;;1.07;88.04
20630;BME280;17386;43.846;25.950;2023-02-13T06:25:15;103540.66;;;1.11;87.91
20630;BME280;17386;43.846;25.950;2023-02-13T06:27:41;103549.88;;;1.22;87.37
20630;BME280;17386;43.846;25.950;2023-02-13T06:30:07;103539.78;;;1.29;86.67
20630;BME280;17386;43.846;25.950;2023-02-13T06:32:32;103536.53;;;1.35;86.38
20630;BME280;17386;43.846;25.950;2023-02-13T06:34:58;103549.09;;;1.42;85.85
20630;BME280;17386;43.846;25.950;2023-02-13T06:37:23;103548.56;;;1.49;85.25
20630;BME280;17386;43.846;25.950;2023-02-13T06:39:48;103547.28;;;1.59;84.83
20630;BME280;17386;43.846;25.950;2023-02-13T06:42:14;103544.84;;;1.63;84.57
20630;BME280;17386;43.846;25.950;2023-02-13T06:44:39;103540.13;;;1.74;84.57
20630;BME280;17386;43.846;25.950;2023-02-13T06:47:05;103537.94;;;1.85;84.18
20630;BME280;17386;43.846;25.950;2023-02-13T06:49:30;103544.19;;;1.87;83.76
20630;BME280;17386;43.846;25.950;2023-02-13T06:51:55;103538.72;;;2.02;83.00
20630;BME280;17386;43.846;25.950;2023-02-13T06:54:21;103530.41;;;2.12;82.26
20630;BME280;17386;43.846;25.950;2023-02-13T06:56:46;103530.00;;;2.22;82.07
20630;BME280;17386;43.846;25.950;2023-02-13T06:59:12;103533.16;;;2.34;81.64
20630;BME280;17386;43.846;25.950;2023-02-13T07:01:37;103527.25;;;2.40;81.28
20630;BME280;17386;43.846;25.950;2023-02-13T07:04:05;103522.47;;;2.51;81.05
20630;BME280;17386;43.846;25.950;2023-02-13T07:06:31;103518.47;;;2.60;80.70
20630;BME280;17386;43.846;25.950;2023-02-13T07:08:56;103517.16;;;2.70;80.34
20630;BME280;17386;43.846;25.950;2023-02-13T07:11:23;103519.00;;;2.72;79.67
20630;BME280;17386;43.846;25.950;2023-02-13T07:13:48;103510.72;;;2.84;79.65
20630;BME280;17386;43.846;25.950;2023-02-13T07:16:14;103507.63;;;2.94;78.79
20630;BME280;17386;43.846;25.950;2023-02-13T07:18:40;103510.69;;;3.05;78.27
20630;BME280;17386;43.846;25.950;2023-02-13T07:21:05;103507.47;;;3.12;77.88
20630;BME280;17386;43.846;25.950;2023-02-13T07:23:31;103509.31;;;3.15;77.26
20630;BME280;17386;43.846;25.950;2023-02-13T07:26:00;103518.41;;;3.23;76.91
20630;BME280;17386;43.846;25.950;2023-02-13T07:28:26;103510.09;;;3.35;76.48
20630;BME280;17386;43.846;25.950;2023-02-13T07:30:52;103507.88;;;3.45;75.58
20630;BME280;17386;43.846;25.950;2023-02-13T07:33:18;103498.53;;;3.53;75.27
20630;BME280;17386;43.846;25.950;2023-02-13T07:35:47;103504.22;;;3.64;74.52
20630;BME280;17386;43.846;25.950;2023-02-13T07:38:13;103502.53;;;3.66;74.19
20630;BME280;17386;43.846;25.950;2023-02-13T07:40:38;103496.81;;;3.78;74.32
20630;BME280;17386;43.846;25.950;2023-02-13T07:43:04;103500.72;;;3.89;74.03
20630;BME280;17386;43.846;25.950;2023-02-13T07:45:29;103498.34;;;3.97;72.86
20630;BME280;17386;43.846;25.950;2023-02-13T07:47:55;103495.69;;;3.95;72.19
20630;BME280;17386;43.846;25.950;2023-02-13T07:50:21;103492.56;;;4.05;72.06
20630;BME280;17386;43.846;25.950;2023-02-13T07:53:00;103491.22;;;4.18;71.60
20630;BME280;17386;43.846;25.950;2023-02-13T07:55:26;103499.69;;;4.35;70.39
20630;BME280;17386;43.846;25.950;2023-02-13T07:57:53;103489.47;;;4.44;69.90
20630;BME280;17386;43.846;25.950;2023-02-13T08:00:19;103498.63;;;4.55;69.74
20630;BME280;17386;43.846;25.950;2023-02-13T08:02:46;103493.53;;;4.60;69.47
20630;BME280;17386;43.846;25.950;2023-02-13T08:05:12;103490.13;;;4.64;69.25
20630;BME280;17386;43.846;25.950;2023-02-13T08:07:37;103490.38;;;4.72;69.79
20630;BME280;17386;43.846;25.950;2023-02-13T08:10:05;103467.50;;;4.69;69.64
20630;BME280;17386;43.846;25.950;2023-02-13T08:12:51;103482.88;;;4.84;70.00
20630;BME280;17386;43.846;25.950;2023-02-13T08:15:17;103473.50;;;4.93;69.94
20630;BME280;17386;43.846;25.950;2023-02-13T08:17:42;103475.84;;;5.11;69.14
20630;BME280;17386;43.846;25.950;2023-02-13T08:20:08;103479.50;;;4.88;69.60
20630;BME280;17386;43.846;25.950;2023-02-13T08:22:35;103474.31;;;4.91;70.30
20630;BME280;17386;43.846;25.950;2023-02-13T08:25:01;103469.00;;;5.18;69.43
20630;BME280;17386;43.846;25.950;2023-02-13T08:27:26;103474.88;;;5.38;68.21
20630;BME280;17386;43.846;25.950;2023-02-13T08:29:55;103468.91;;;5.43;68.04
20630;BME280;17386;43.846;25.950;2023-02-13T08:32:21;103472.38;;;5.42;68.35
20630;BME280;17386;43.846;25.950;2023-02-13T08:34:46;103469.38;;;5.60;67.52
20630;BME280;17386;43.846;25.950;2023-02-13T08:37:12;103474.28;;;5.78;66.53
20630;BME280;17386;43.846;25.950;2023-02-13T08:39:37;103460.88;;;5.70;67.69
20630;BME280;17386;43.846;25.950;2023-02-13T08:42:03;103464.13;;;5.62;69.24
20630;BME280;17386;43.846;25.950;2023-02-13T08:44:28;103464.34;;;5.69;69.93
20630;BME280;17386;43.846;25.950;2023-02-13T08:46:54;103459.03;;;5.68;69.56
20630;BME280;17386;43.846;25.950;2023-02-13T08:49:20;103460.34;;;5.52;70.04
20630;BME280;17386;43.846;25.950;2023-02-13T08:51:45;103453.94;;;5.42;69.61
20630;BME280;17386;43.846;25.950;2023-02-13T08:54:11;103452.00;;;5.68;71.15
20630;BME280;17386;43.846;25.950;2023-02-13T08:56:37;103455.78;;;6.10;68.76
20630;BME280;17386;43.846;25.950;2023-02-13T08:59:02;103454.56;;;6.30;66.89
20630;BME280;17386;43.846;25.950;2023-02-13T09:01:28;103449.44;;;6.36;65.92
20630;BME280;17386;43.846;25.950;2023-02-13T09:03:54;103454.69;;;6.71;65.18
20630;BME280;17386;43.846;25.950;2023-02-13T09:06:19;103450.00;;;6.97;63.69
20630;BME280;17386;43.846;25.950;2023-02-13T09:08:45;103454.97;;;7.22;61.30
20630;BME280;17386;43.846;25.950;2023-02-13T09:11:10;103445.31;;;7.68;61.39
20630;BME280;17386;43.846;25.950;2023-02-13T09:13:36;103439.53;;;7.42;57.73
20630;BME280;17386;43.846;25.950;2023-02-13T09:16:05;103435.81;;;7.78;57.53
20630;BME280;17386;43.846;25.950;2023-02-13T09:18:32;103443.38;;;8.06;56.37
20630;BME280;17386;43.846;25.950;2023-02-13T09:21:03;103443.63;;;8.18;55.60
20630;BME280;17386;43.846;25.950;2023-02-13T09:23:34;103429.41;;;7.66;56.67
20630;BME280;17386;43.846;25.950;2023-02-13T09:26:04;103431.28;;;7.71;56.97
20630;BME280;17386;43.846;25.950;2023-02-13T09:28:32;103432.56;;;7.94;57.17
20630;BME280;17386;43.846;25.950;2023-02-13T09:30:58;103424.59;;;8.41;55.56
20630;BME280;17386;43.846;25.950;2023-02-13T09:33:25;103422.81;;;8.40;54.73
20630;BME280;17386;43.846;25.950;2023-02-13T09:35:51;103413.44;;;8.63;55.40
20630;BME280;17386;43.846;25.950;2023-02-13T09:38:17;103406.56;;;8.21;55.78
20630;BME280;17386;43.846;25.950;2023-02-13T09:40:49;103403.00;;;8.18;56.71
20630;BME280;17386;43.846;25.950;2023-02-13T09:43:36;103397.31;;;8.46;56.60
20630;BME280;17386;43.846;25.950;2023-02-13T09:48:40;103386.34;;;8.27;56.81
20630;BME280;17386;43.846;25.950;2023-02-13T09:51:10;103381.28;;;8.37;57.03
20630;BME280;17386;43.846;25.950;2023-02-13T09:53:38;103380.19;;;8.26;56.69
20630;BME280;17386;43.846;25.950;2023-02-13T09:56:21;103365.81;;;8.66;56.82
20630;BME280;17386;43.846;25.950;2023-02-13T10:01:33;103353.19;;;9.14;55.21
20630;BME280;17386;43.846;25.950;2023-02-13T10:07:44;103349.16;;;9.52;55.00
20630;BME280;17386;43.846;25.950;2023-02-13T10:13:05;103327.53;;;10.08;54.02
20630;BME280;17386;43.846;25.950;2023-02-13T10:18:17;103325.63;;;9.91;54.59
20630;BME280;17386;43.846;25.950;2023-02-13T10:20:53;103327.94;;;10.69;53.13
20630;BME280;17386;43.846;25.950;2023-02-13T10:23:34;103319.28;;;11.18;52.23
20630;BME280;17386;43.846;25.950;2023-02-13T10:26:06;103302.50;;;11.49;51.47
20630;BME280;17386;43.846;25.950;2023-02-13T10:28:55;103298.97;;;12.19;49.97
20630;BME280;17386;43.846;25.950;2023-02-13T10:31:43;103292.75;;;12.17;49.84
20630;BME280;17386;43.846;25.950;2023-02-13T10:34:14;103289.19;;;11.71;51.63
20630;BME280;17386;43.846;25.950;2023-02-13T10:36:43;103284.78;;;12.16;51.13
20630;BME280;17386;43.846;25.950;2023-02-13T10:39:24;103290.13;;;11.85;50.54
20630;BME280;17386;43.846;25.950;2023-02-13T10:47:25;103281.09;;;11.04;53.44
20630;BME280;17386;43.846;25.950;2023-02-13T10:58:20;103273.84;;;10.63;53.74
20630;BME280;17386;43.846;25.950;2023-02-13T11:03:23;103273.88;;;10.57;55.12
20630;BME280;17386;43.846;25.950;2023-02-13T11:05:50;103271.38;;;11.13;54.88
20630;BME280;17386;43.846;25.950;2023-02-13T11:10:58;103244.84;;;11.53;53.91
20630;BME280;17386;43.846;25.950;2023-02-13T11:13:26;103253.69;;;11.70;52.86
20630;BME280;17386;43.846;25.950;2023-02-13T11:16:02;103247.47;;;12.03;51.25
20630;BME280;17386;43.846;25.950;2023-02-13T11:18:32;103250.97;;;11.11;53.78
20630;BME280;17386;43.846;25.950;2023-02-13T11:21:20;103243.91;;;11.13;54.88
20630;BME280;17386;43.846;25.950;2023-02-13T11:23:51;103243.88;;;11.08;55.88
20630;BME280;17386;43.846;25.950;2023-02-13T11:26:34;103241.13;;;10.76;56.35
20630;BME280;17386;43.846;25.950;2023-02-13T11:29:05;103230.63;;;11.42;55.32
20630;BME280;17386;43.846;25.950;2023-02-13T11:31:36;103231.50;;;11.42;54.56
20630;BME280;17386;43.846;25.950;2023-02-13T11:34:34;103225.28;;;11.28;56.59
20630;BME280;17386;43.846;25.950;2023-02-13T11:39:37;103213.72;;;11.17;57.30
20630;BME280;17386;43.846;25.950;2023-02-13T11:42:15;103214.59;;;10.94;58.96
20630;BME280;17386;43.846;25.950;2023-02-13T11:44:47;103205.63;;;10.62;61.33
20630;BME280;17386;43.846;25.950;2023-02-13T11:47:12;103196.75;;;10.63;62.10
20630;BME280;17386;43.846;25.950;2023-02-13T11:49:44;103190.69;;;11.07;61.48
20630;BME280;17386;43.846;25.950;2023-02-13T11:52:36;103192.41;;;10.85;60.08
20630;BME280;17386;43.846;25.950;2023-02-13T11:55:23;103182.59;;;10.58;61.89
20630;BME280;17386;43.846;25.950;2023-02-13T11:58:00;103185.34;;;11.08;60.21
20630;BME280;17386;43.846;25.950;2023-02-13T12:02:51;103182.66;;;10.85;60.87
20630;BME280;17386;43.846;25.950;2023-02-13T12:05:22;103176.41;;;10.65;61.71
20630;BME280;17386;43.846;25.950;2023-02-13T12:07:48;103174.63;;;10.68;61.64
20630;BME280;17386;43.846;25.950;2023-02-13T12:15:33;103163.06;;;10.45;63.42
20630;BME280;17386;43.846;25.950;2023-02-13T12:18:09;103166.34;;;9.95;65.17
20630;BME280;17386;43.846;25.950;2023-02-13T12:20:52;103161.09;;;10.15;65.31
20630;BME280;17386;43.846;25.950;2023-02-13T12:31:49;103160.91;;;9.77;67.39
20630;BME280;17386;43.846;25.950;2023-02-13T12:39:41;103156.16;;;9.28;70.49
20630;BME280;17386;43.846;25.950;2023-02-13T13:12:44;103149.66;;;8.97;73.95
20630;BME280;17386;43.846;25.950;2023-02-13T13:16:05;103140.94;;;9.08;74.13
20630;BME280;17386;43.846;25.950;2023-02-13T13:21:40;103141.06;;;9.23;73.87
20630;BME280;17386;43.846;25.950;2023-02-13T13:26:56;103140.94;;;9.08;73.41
20630;BME280;17386;43.846;25.950;2023-02-13T13:29:28;103134.63;;;8.95;74.34
20630;BME280;17386;43.846;25.950;2023-02-13T13:32:00;103123.03;;;8.84;75.10
20630;BME280;17386;43.846;25.950;2023-02-13T13:34:26;103119.56;;;8.89;74.75
20630;BME280;17386;43.846;25.950;2023-02-13T13:42:31;103112.41;;;8.81;76.02
20630;BME280;17386;43.846;25.950;2023-02-13T13:50:39;103097.25;;;8.67;75.32
20630;BME280;17386;43.846;25.950;2023-02-13T13:53:14;103094.56;;;8.61;75.24
20630;BME280;17386;43.846;25.950;2023-02-13T14:01:16;103094.47;;;8.55;75.52
20630;BME280;17386;43.846;25.950;2023-02-13T14:03:44;103094.38;;;8.44;75.87
20630;BME280;17386;43.846;25.950;2023-02-13T14:06:13;103085.50;;;8.38;76.38
20630;BME280;17386;43.846;25.950;2023-02-13T14:11:05;103083.56;;;8.29;76.89
20630;BME280;17386;43.846;25.950;2023-02-13T14:13:38;103063.06;;;8.10;77.78
20630;BME280;17386;43.846;25.950;2023-02-13T14:16:57;103078.19;;;8.21;78.40
20630;BME280;17386;43.846;25.950;2023-02-13T14:24:54;103083.50;;;8.21;77.89
20630;BME280;17386;43.846;25.950;2023-02-13T14:27:29;103081.78;;;8.27;78.10
20630;BME280;17386;43.846;25.950;2023-02-13T14:29:56;103091.56;;;8.31;78.05
20630;BME280;17386;43.846;25.950;2023-02-13T14:32:33;103088.97;;;8.35;78.11
20630;BME280;17386;43.846;25.950;2023-02-13T14:35:25;103091.50;;;8.29;78.56
20630;BME280;17386;43.846;25.950;2023-02-13T14:37:56;103097.69;;;8.28;78.42
20630;BME280;17386;43.846;25.950;2023-02-13T14:42:58;103092.31;;;8.22;78.79
20630;BME280;17386;43.846;25.950;2023-02-13T14:45:28;103089.75;;;8.28;78.62
20630;BME280;17386;43.846;25.950;2023-02-13T14:47:57;103090.63;;;8.29;78.69
20630;BME280;17386;43.846;25.950;2023-02-13T14:50:30;103094.94;;;8.17;79.43
20630;BME280;17386;43.846;25.950;2023-02-13T14:53:05;103088.53;;;7.99;80.76
20630;BME280;17386;43.846;25.950;2023-02-13T14:55:37;103086.69;;;7.94;81.54
20630;BME280;17386;43.846;25.950;2023-02-13T14:58:31;103081.38;;;7.91;81.94
20630;BME280;17386;43.846;25.950;2023-02-13T15:01:02;103082.31;;;7.97;82.07
20630;BME280;17386;43.846;25.950;2023-02-13T15:03:50;103081.34;;;7.90;82.84
20630;BME280;17386;43.846;25.950;2023-02-13T15:06:28;103072.38;;;7.79;83.37
20630;BME280;17386;43.846;25.950;2023-02-13T15:08:56;103073.34;;;7.85;83.40
20630;BME280;17386;43.846;25.950;2023-02-13T15:11:41;103066.94;;;7.68;84.30
20630;BME280;17386;43.846;25.950;2023-02-13T15:16:41;103066.03;;;7.67;84.20
20630;BME280;17386;43.846;25.950;2023-02-13T15:19:13;103066.81;;;7.57;84.89
20630;BME280;17386;43.846;25.950;2023-02-13T15:21:52;103065.94;;;7.60;85.06
20630;BME280;17386;43.846;25.950;2023-02-13T15:24:19;103058.88;;;7.57;85.11
20630;BME280;17386;43.846;25.950;2023-02-13T15:27:04;103057.88;;;7.49;85.68
20630;BME280;17386;43.846;25.950;2023-02-13T15:29:30;103057.69;;;7.35;86.50
20630;BME280;17386;43.846;25.950;2023-02-13T15:32:02;103049.53;;;7.22;87.17
20630;BME280;17386;43.846;25.950;2023-02-13T15:34:46;103060.91;;;7.16;87.78
20630;BME280;17386;43.846;25.950;2023-02-13T15:37:27;103066.22;;;7.19;87.81
20630;BME280;17386;43.846;25.950;2023-02-13T15:40:12;103055.63;;;7.16;87.75
20630;BME280;17386;43.846;25.950;2023-02-13T15:42:38;103050.03;;;6.98;88.56
20630;BME280;17386;43.846;25.950;2023-02-13T15:45:04;103067.75;;;7.03;88.86